Latest Coastal Weather Observations for Swan Island

IDT60701

Issued at 4:42 pm EDT Tuesday 6 December 2016 (issued every 10 minutes, with the page automatically refreshed every 10 minutes)

About coastal observations | Map of coastal stations | Coastal observations for TAS | Marine services | Other Formats
Station Details ID: 092123 Name: SWAN ISLAND Lat: -40.73 Lon: 148.12 Height: 15.0 m
Data from the previous 72 hours. | See also: Recent months at Swan Island
Date/Time
EDT
Temp
°C
Wind Pressure Rain since
9am
mm
Weather Cloud Vis
km
Sea
Height
m
Swell
Dir  Spd
kts
Gust
kts
hPa Trend Height
m
Period
s
Dir
06/04:34pm 16.7 W 19 29 1008.3 - 0.0 - - - - - - -
06/04:30pm 16.9 W 20 28 1008.3 - 0.0 - - - - - - -
06/04:00pm 16.5 W 21 32 1008.2 - 0.0 - - - - - - -
06/03:30pm 16.6 WNW 21 33 1008.4 - 0.0 - - - - - - -
06/03:18pm 16.7 WNW 22 32 1008.5 - 0.0 - - - - - - -
06/03:00pm 16.6 WNW 23 32 1008.7 - 0.0 - - - - - - -
06/02:51pm 16.6 WNW 22 32 1008.5 - 0.0 - - - - - - -
06/02:30pm 16.6 WNW 22 30 1008.5 - 0.0 - - - - - - -
06/02:00pm 16.5 WNW 21 27 1008.9 - 0.0 - - - - - - -
06/01:30pm 16.4 WNW 19 28 1008.9 - 0.0 - - - - - - -
06/01:15pm 16.2 W 18 29 1009.1 - 0.0 - - - - - - -
06/01:00pm 16.2 WNW 19 27 1009.2 - 0.0 - - - - - - -
06/12:30pm 15.8 WNW 20 28 1009.4 - 0.0 - - - - - - -
06/12:02pm 16.3 WNW 20 30 1009.6 - 0.0 - - - - - - -
06/12:00pm 15.9 WNW 21 30 1009.6 - 0.0 - - - - - - -
06/11:30am 16.0 WNW 19 25 1009.8 - 0.0 - - - - - - -
06/11:00am 15.5 WNW 17 22 1010.2 - 0.0 - - - - - - -
06/10:30am 14.6 WNW 16 24 1010.1 - 0.0 - - - - - - -
06/10:00am 15.0 NW 15 20 1010.1 - 0.0 - - - - - - -
06/09:30am 14.5 WNW 15 21 1010.2 - 0.0 - - - - - - -
06/09:00am 14.9 WNW 11 17 1010.7 - 0.0 - - - - - - -
06/08:30am 14.5 W 12 18 1011.1 - 0.0 - - - - - - -
06/08:00am 14.3 WNW 13 19 1011.1 - 0.0 - - - - - - -
06/07:30am 14.0 W 14 18 1010.4 - 0.0 - - - - - - -
06/07:00am 13.6 W 13 18 1010.8 - 0.0 - - - - - - -
06/06:30am 13.4 W 12 16 1010.3 - 0.0 - - - - - - -
06/06:00am 13.3 W 10 19 1009.6 - 0.0 - - - - - - -
06/05:30am 13.7 WSW 6 9 1009.4 - 0.0 - - - - - - -
06/05:00am 13.4 WSW 5 8 1008.9 - 0.0 - - - - - - -
06/04:30am 13.7 WSW 5 9 1009.0 - 0.0 - - - - - - -
06/04:00am 14.0 SSW 7 11 1009.1 - 0.0 - - - - - - -
06/03:30am 14.3 SW 8 12 1009.5 - 0.0 - - - - - - -
06/03:00am 14.6 S 9 13 1009.7 - 0.0 - - - - - - -
06/02:30am 14.9 SSE 12 16 1009.9 - 0.0 - - - - - - -
06/02:00am 14.7 S 11 16 1010.4 - 0.0 - - - - - - -
06/01:30am 14.7 SSE 13 17 1010.7 - 0.0 - - - - - - -
06/01:00am 15.0 SSE 12 17 1011.3 - 0.0 - - - - - - -
06/12:30am 14.9 S 8 11 1011.4 - 0.0 - - - - - - -
06/12:00am 15.0 S 9 12 1011.9 - 0.0 - - - - - - -
 
Date/Time
EDT
Temp
°C
Wind Pressure Rain since
9am
mm
Weather Cloud Vis
km
Sea
Height
m
Swell
Dir  Spd
kts
Gust
kts
hPa Trend Height
m
Period
s
Dir
05/11:30pm 15.2 S 6 8 1012.7 - 0.0 - - - - - - -
05/11:00pm 15.2 SSW 5 7 1012.8 - 0.0 - - - - - - -
05/10:30pm 15.2 SSW 3 5 1012.6 - 0.0 - - - - - - -
05/10:00pm 14.7 SW 4 7 1012.1 - 0.0 - - - - - - -
05/09:30pm 14.9 W 8 12 1011.7 - 0.0 - - - - - - -
05/09:00pm 15.1 W 10 15 1011.4 - 0.0 - - - - - - -
05/08:30pm 15.3 W 10 13 1011.3 - 0.0 - - - - - - -
05/08:00pm 15.7 W 12 16 1010.5 - 0.0 - - - - - - -
05/07:30pm 16.3 W 12 18 1010.0 - 0.0 - - - - - - -
05/07:00pm 15.9 W 17 22 1009.1 - 0.0 - - - - - - -
05/06:30pm 16.2 W 20 27 1008.6 - 0.0 - - - - - - -
05/06:00pm 17.3 W 20 27 1008.6 - 0.0 - - - - - - -
05/05:30pm 17.7 W 18 25 1008.3 - 0.0 - - - - - - -
05/05:00pm 17.2 WNW 17 24 1007.6 - 0.0 - - - - - - -
05/04:33pm 17.0 WNW 19 29 1007.3 - 0.0 - - - - - - -
05/04:30pm 17.0 WNW 18 24 1007.4 - 0.0 - - - - - - -
05/04:00pm 17.5 WNW 18 28 1007.8 - 0.0 - - - - - - -
05/03:30pm 17.7 WNW 22 30 1007.8 - 0.0 - - - - - - -
05/03:00pm 17.9 WNW 21 31 1007.5 - 0.0 - - - - - - -
05/02:30pm 17.8 WNW 21 27 1007.4 - 0.0 - - - - - - -
05/02:00pm 17.8 WNW 19 26 1007.5 - 0.0 - - - - - - -
05/01:37pm 18.1 WNW 19 30 1007.4 - 0.0 - - - - - - -
05/01:30pm 18.0 WNW 20 28 1007.4 - 0.0 - - - - - - -
05/01:00pm 17.6 WNW 22 29 1007.1 - 0.0 - - - - - - -
05/12:47pm 17.6 WNW 22 32 1006.8 - 0.0 - - - - - - -
05/12:30pm 17.9 WNW 19 28 1006.9 - 0.0 - - - - - - -
05/12:00pm 17.7 WNW 20 31 1006.5 - 0.0 - - - - - - -
05/11:31am 17.5 W 21 32 1006.0 - 0.0 - - - - - - -
05/11:30am 17.5 W 21 30 1006.0 - 0.0 - - - - - - -
05/11:00am 17.9 W 24 38 1005.3 - 0.0 - - - - - - -
05/10:30am 17.1 W 28 40 1004.8 - 0.0 - - - - - - -
05/10:01am 16.9 W 21 34 1004.3 - 0.0 - - - - - - -
05/10:00am 16.8 W 20 30 1004.4 - 0.0 - - - - - - -
05/09:30am 16.7 W 23 33 1003.9 - 0.0 - - - - - - -
05/09:20am 16.5 WNW 23 33 1003.9 - 0.0 - - - - - - -
05/09:00am 16.5 WNW 23 31 1003.8 - 0.0 - - - - - - -
05/08:30am 16.5 WNW 23 32 1003.5 - 0.0 - - - - - - -
05/08:26am 16.7 WNW 22 32 1003.5 - 0.0 - - - - - - -
05/08:00am 16.7 WNW 21 30 1003.3 - 0.0 - - - - - - -
05/07:30am 16.6 WNW 23 29 1002.8 - 0.0 - - - - - - -
05/07:13am 16.5 WNW 21 32 1002.6 - 0.0 - - - - - - -
05/07:00am 16.5 WNW 23 30 1002.4 - 0.0 - - - - - - -
05/06:35am 16.5 WNW 21 31 1002.0 - 0.0 - - - - - - -
05/06:30am 16.6 WNW 21 29 1001.9 - 0.0 - - - - - - -
05/06:00am 17.4 WNW 21 28 1001.6 - 0.0 - - - - - - -
05/05:30am 18.2 WNW 21 28 1001.4 - 0.0 - - - - - - -
05/05:00am 19.0 NW 26 41 1000.4 - 0.0 - - - - - - -
05/04:43am 18.8 NW 25 37 999.9 - 0.0 - - - - - - -
05/04:30am 18.9 NNW 27 32 999.4 - 0.0 - - - - - - -
05/04:00am 18.3 NNW 21 23 999.3 - 0.0 - - - - - - -
05/03:30am 17.0 NNW 14 16 999.4 - 0.0 - - - - - - -
05/03:00am 17.4 NNW 16 19 1000.0 - 0.0 - - - - - - -
05/02:30am 17.5 NNW 16 19 1000.4 - 0.0 - - - - - - -
05/02:00am 17.6 NNW 16 18 1000.8 - 0.0 - - - - - - -
05/01:30am 17.7 NNW 16 18 1001.3 - 0.0 - - - - - - -
05/01:00am 17.7 NNW 13 15 1002.3 - 0.0 - - - - - - -
05/12:30am 17.4 NNW 14 16 1002.6 - 0.0 - - - - - - -
05/12:00am 17.5 NNW 14 17 1003.3 - 0.0 - - - - - - -
 
Date/Time
EDT
Temp
°C
Wind Pressure Rain since
9am
mm
Weather Cloud Vis
km
Sea
Height
m
Swell
Dir  Spd
kts
Gust
kts
hPa Trend Height
m
Period
s
Dir
04/11:30pm 18.4 NNW 15 19 1004.1 - 0.0 - - - - - - -
04/11:00pm 17.6 NNW 11 13 1004.4 - 0.0 - - - - - - -
04/10:30pm 17.9 NNW 11 17 1004.6 - 0.0 - - - - - - -
04/10:00pm 17.4 W 5 8 1005.0 - 0.0 - - - - - - -
04/09:30pm 17.3 NNW 3 6 1005.0 - 0.0 - - - - - - -
04/09:00pm 17.3 N 15 18 1005.2 - 0.0 - - - - - - -
04/08:30pm 17.4 N 9 13 1005.4 - 0.0 - - - - - - -
04/08:00pm 17.3 N 6 8 1005.9 - 0.0 - - - - - - -
04/07:30pm 17.8 NNE 7 9 1006.6 - 0.0 - - - - - - -
04/07:00pm 18.2 NNE 9 12 1006.8 - 0.0 - - - - - - -
04/06:30pm 18.3 NE 6 9 1007.1 - 0.0 - - - - - - -
04/06:00pm 17.9 E 6 9 1007.3 - 0.0 - - - - - - -
04/05:30pm 17.7 ENE 9 11 1007.5 - 0.0 - - - - - - -
04/05:00pm 18.0 E 8 11 1007.9 - 0.0 - - - - - - -
04/04:30pm 17.9 ENE 11 13 1008.4 - 0.0 - - - - - - -
04/04:00pm 17.7 ENE 13 15 1008.9 - 0.0 - - - - - - -
04/03:30pm 17.9 ENE 11 14 1009.7 - 0.0 - - - - - - -
04/03:00pm 18.0 ENE 11 13 1010.2 - 0.0 - - - - - - -
04/02:30pm 17.9 ENE 13 15 1010.4 - 0.0 - - - - - - -
04/02:00pm 17.7 ENE 12 15 1010.8 - 0.0 - - - - - - -
04/01:30pm 17.9 ENE 11 14 1011.5 - 0.0 - - - - - - -
04/01:00pm 17.9 ENE 11 13 1012.1 - 0.0 - - - - - - -
04/12:30pm 18.3 ENE 9 10 1012.5 - 0.0 - - - - - - -
04/12:00pm 17.8 ENE 7 9 1013.1 - 0.0 - - - - - - -
04/11:30am 18.0 E 8 10 1013.0 - 0.0 - - - - - - -
04/11:00am 17.5 ENE 7 8 1013.4 - 0.0 - - - - - - -
04/10:30am 17.4 ENE 7 9 1013.8 - 0.0 - - - - - - -
04/10:00am 16.8 ENE 7 8 1014.0 - 0.0 - - - - - - -
04/09:30am 16.3 ENE 6 8 1014.2 - 0.0 - - - - - - -
04/09:00am 15.6 NE 5 6 1014.7 - 0.0 - - - - - - -
04/08:30am 15.8 NE 4 5 1014.6 - 0.0 - - - - - - -
04/08:00am 15.7 NNE 4 5 1014.6 - 0.0 - - - - - - -
04/07:30am 14.8 NNE 5 6 1014.8 - 0.0 - - - - - - -
04/07:00am 13.9 N 4 5 1014.8 - 0.0 - - - - - - -
04/06:30am 13.3 N 4 5 1014.9 - 0.0 - - - - - - -
04/06:00am 12.8 N 5 6 1014.6 - 0.0 - - - - - - -
04/05:30am 12.8 NNW 7 8 1014.4 - 0.0 - - - - - - -
04/05:00am 12.8 N 9 10 1014.2 - 0.0 - - - - - - -
04/04:30am 12.8 N 10 11 1014.2 - 0.0 - - - - - - -
04/04:00am 13.2 N 10 11 1014.3 - 0.0 - - - - - - -
04/03:30am 13.4 NNW 8 10 1014.4 - 0.0 - - - - - - -
04/03:00am 13.1 NW 6 7 1014.4 - 0.0 - - - - - - -
04/02:30am 13.3 NW 7 8 1014.8 - 0.0 - - - - - - -
04/02:00am 13.2 NW 6 8 1015.1 - 0.0 - - - - - - -
04/01:30am 13.3 WNW 7 8 1015.3 - 0.0 - - - - - - -
04/01:00am 13.2 WNW 6 9 1015.6 - 0.0 - - - - - - -
04/12:30am 13.2 W 7 10 1015.9 - 0.0 - - - - - - -
04/12:00am 13.2 W 8 10 1015.9 - 0.0 - - - - - - -
 
Date/Time
EDT
Temp
°C
Wind Pressure Rain since
9am
mm
Weather Cloud Vis
km
Sea
Height
m
Swell
Dir  Spd
kts
Gust
kts
hPa Trend Height
m
Period
s
Dir
03/11:30pm 13.3 W 8 12 1015.8 - 0.0 - - - - - - -
03/11:00pm 13.5 W 9 12 1016.1 - 0.0 - - - - - - -
03/10:30pm 13.6 WNW 11 16 1016.2 - 0.0 - - - - - - -
03/10:00pm 13.6 WNW 10 13 1016.0 - 0.0 - - - - - - -
03/09:30pm 13.8 WNW 12 16 1015.8 - 0.0 - - - - - - -
03/09:00pm 13.7 WNW 11 15 1015.7 - 0.0 - - - - - - -
03/08:30pm 13.6 W 10 13 1015.3 - 0.0 - - - - - - -
03/08:00pm 14.1 WNW 13 18 1015.3 - 0.0 - - - - - - -
03/07:30pm 14.5 WNW 12 17 1015.2 - 0.0 - - - - - - -
03/07:00pm 15.0 WNW 11 16 1014.9 - 0.0 - - - - - - -
03/06:30pm 15.4 WNW 12 16 1014.6 - 0.0 - - - - - - -
03/06:00pm 15.7 WNW 12 17 1014.5 - 0.0 - - - - - - -
03/05:30pm 15.7 WNW 13 17 1014.5 - 0.0 - - - - - - -
03/05:00pm 15.8 WNW 14 19 1014.6 - 0.0 - - - - - - -

Other Formats:

Comma delimited format used in spreadsheet applications
http://www.bom.gov.au/fwo/IDT60701/IDT60701.95985.axf

JavaScript Object Notation format (JSON) in row-major order
http://www.bom.gov.au/fwo/IDT60701/IDT60701.95985.json